Time;durP1;ratioP1;P1;durP2;ratioP2;P2;SDS_P1;SDS_P2;PMS_P1;PMS_P2;Temp;Humidity;BMP_temperature;BMP_pressure;BME280_temperature;BME280_humidity;BME280_pressure;Samples;Min_cycle;Max_cycle;Signal;HPM_P1;HPM_P2
2022/03/28 00:01:32;;;;;;;22.87;9.40;;;;;;;5.40;81.70;102602.50;5036053;28;20045;-80
2022/03/28 00:03:58;;;;;;;22.33;9.77;;;;;;;5.31;81.46;102581.81;5052628;28;20063;-80
2022/03/28 00:06:23;;;;;;;20.07;9.20;;;;;;;5.31;81.70;102593.41;5054795;28;20029;-80
2022/03/28 00:08:50;;;;;;;22.73;9.67;;;;;;;5.38;81.60;102599.09;5036974;28;20059;-80
2022/03/28 00:11:16;;;;;;;21.47;9.70;;;;;;;5.24;81.14;102586.88;5026559;28;20465;-81
2022/03/28 00:13:43;;;;;;;20.80;9.40;;;;;;;5.33;81.63;102607.56;5054955;28;20140;-80
2022/03/28 00:16:10;;;;;;;21.63;9.50;;;;;;;5.13;82.05;102574.34;5041548;28;20052;-80
2022/03/28 00:18:36;;;;;;;24.67;9.30;;;;;;;5.09;82.17;102570.25;5036020;28;20120;-88
2022/03/28 00:21:02;;;;;;;22.07;9.77;;;;;;;5.08;82.65;102569.38;5052705;28;20115;-80
2022/03/28 00:23:27;;;;;;;21.23;9.10;;;;;;;5.11;82.31;102562.03;5061092;28;20041;-80
2022/03/28 00:25:53;;;;;;;24.23;9.77;;;;;;;4.98;82.44;102555.03;5035796;28;20033;-80
2022/03/28 00:28:19;;;;;;;22.63;9.43;;;;;;;5.10;82.13;102565.69;5048940;28;20037;-80
2022/03/28 00:30:45;;;;;;;22.60;10.20;;;;;;;4.99;82.50;102558.56;5035735;28;20038;-81
2022/03/28 00:33:11;;;;;;;22.60;9.70;;;;;;;5.03;82.64;102565.38;5052870;28;20380;-80
2022/03/28 00:35:36;;;;;;;21.83;9.50;;;;;;;5.14;82.65;102570.69;5034813;28;20046;-80
2022/03/28 00:38:05;;;;;;;20.27;8.83;;;;;;;4.99;83.11;102540.63;5035124;28;20366;-80
2022/03/28 00:40:32;;;;;;;19.50;8.93;;;;;;;4.89;82.71;102532.50;5039902;28;20507;-80
2022/03/28 00:43:03;;;;;;;16.83;8.07;;;;;;;4.86;83.28;102530.09;5035865;28;20136;-80
2022/03/28 00:46:00;;;;;;;23.50;10.13;;;;;;;5.14;83.06;102570.69;5052879;28;20039;-80
2022/03/28 00:48:26;;;;;;;24.57;10.80;;;;;;;4.91;83.19;102529.72;5042970;28;20025;-80
2022/03/28 00:50:56;;;;;;;26.30;10.90;;;;;;;4.85;84.06;102530.22;5016891;28;20144;-81
2022/03/28 00:53:24;;;;;;;23.17;10.10;;;;;;;4.81;84.03;102531.47;5050220;28;20040;-80
2022/03/28 00:55:50;;;;;;;25.23;10.30;;;;;;;4.84;84.30;102542.81;5038041;28;20108;-80
2022/03/28 00:58:15;;;;;;;25.00;11.03;;;;;;;4.73;84.62;102524.06;5041588;28;20444;-81
2022/03/28 01:00:40;;;;;;;25.97;10.70;;;;;;;4.73;84.77;102524.06;5034034;28;20059;-80
2022/03/28 01:03:06;;;;;;;27.30;11.23;;;;;;;4.79;84.98;102545.03;5044619;28;20037;-80
2022/03/28 01:05:32;;;;;;;27.33;10.73;;;;;;;4.74;85.06;102532.00;5060640;28;20041;-80
2022/03/28 01:07:59;;;;;;;24.17;11.07;;;;;;;4.68;85.47;102523.63;5040051;28;20140;-80
2022/03/28 01:10:25;;;;;;;25.63;10.80;;;;;;;4.68;85.38;102543.28;5016193;28;20115;-81
2022/03/28 01:12:51;;;;;;;24.00;10.83;;;;;;;4.71;85.53;102531.41;5053179;28;20041;-80
2022/03/28 01:15:16;;;;;;;29.67;11.57;;;;;;;4.64;85.47;102525.72;5053131;28;20052;-81
2022/03/28 01:20:28;;;;;;;25.67;11.27;;;;;;;4.65;85.64;102534.63;5045471;28;20156;-80
2022/03/28 01:22:54;;;;;;;23.80;11.67;;;;;;;4.46;85.80;102487.88;5015775;28;20132;-80
2022/03/28 01:25:24;;;;;;;25.70;11.70;;;;;;;4.56;86.12;102512.09;5049285;28;20112;-80
2022/03/28 01:27:52;;;;;;;28.63;12.10;;;;;;;4.53;86.07;102505.16;5046911;28;20515;-80
2022/03/28 01:30:19;;;;;;;26.67;11.87;;;;;;;4.55;86.31;102497.81;5032385;28;20068;-80
2022/03/28 01:32:46;;;;;;;26.47;11.43;;;;;;;4.49;86.00;102497.50;5037017;28;20054;-81
2022/03/28 01:35:12;;;;;;;29.97;12.43;;;;;;;4.42;86.08;102489.13;5054030;28;20057;-81
2022/03/28 01:37:37;;;;;;;28.73;11.43;;;;;;;4.39;85.73;102486.69;5050004;28;20071;-81
2022/03/28 01:40:04;;;;;;;25.57;11.77;;;;;;;4.29;86.06;102477.72;5052543;28;20045;-81
2022/03/28 01:42:32;;;;;;;29.40;11.97;;;;;;;4.33;86.34;102479.19;5046680;28;20028;-80
2022/03/28 01:45:00;;;;;;;24.93;12.43;;;;;;;4.46;86.41;102495.94;5044373;28;20391;-80
2022/03/28 01:47:26;;;;;;;24.53;11.13;;;;;;;4.46;86.60;102493.25;5037417;28;20385;-81
2022/03/28 01:49:52;;;;;;;28.30;11.47;;;;;;;4.34;87.20;102480.88;5039552;28;21975;-81
2022/03/28 01:52:18;;;;;;;24.90;10.27;;;;;;;4.45;87.21;102504.97;5035834;28;20037;-80
2022/03/28 01:54:44;;;;;;;26.17;11.00;;;;;;;4.11;86.96;102462.22;5051767;28;20419;-80
2022/03/28 01:57:10;;;;;;;23.00;9.67;;;;;;;4.22;87.70;102478.25;5045415;28;20033;-80
2022/03/28 02:06:19;;;;;;;25.30;11.10;;;;;;;4.13;86.60;102472.81;5037118;28;20029;-80
2022/03/28 02:08:44;;;;;;;21.77;10.37;;;;;;;4.24;87.02;102486.16;5037134;28;20029;-80
2022/03/28 02:11:10;;;;;;;24.20;11.07;;;;;;;4.09;87.36;102466.84;5050676;28;20040;-81
2022/03/28 02:13:35;;;;;;;25.77;11.30;;;;;;;4.22;86.88;102493.50;5026727;28;20048;-81
2022/03/28 02:16:01;;;;;;;25.07;11.10;;;;;;;4.11;87.08;102464.03;5056666;28;20452;-80
2022/03/28 02:18:27;;;;;;;23.73;10.93;;;;;;;4.21;86.96;102486.41;5071528;28;20123;-81
2022/03/28 02:20:53;;;;;;;26.17;10.27;;;;;;;4.06;87.37;102456.38;5020185;28;20405;-81
2022/03/28 02:23:20;;;;;;;26.10;11.87;;;;;;;3.96;87.85;102452.78;5035916;28;20069;-80
2022/03/28 02:25:46;;;;;;;29.17;11.83;;;;;;;3.95;88.22;102454.59;5046963;28;20047;-80
2022/03/28 02:28:11;;;;;;;25.77;11.70;;;;;;;4.13;87.95;102476.31;5068664;28;20419;-83
2022/03/28 02:30:38;;;;;;;31.57;12.53;;;;;;;4.02;88.70;102460.28;5065439;28;20116;-80
2022/03/28 02:33:04;;;;;;;28.67;12.57;;;;;;;4.13;88.99;102473.66;5055168;28;20437;-80
2022/03/28 02:35:29;;;;;;;29.67;11.83;;;;;;;3.96;88.46;102442.88;5050504;28;20076;-80
2022/03/28 02:37:57;;;;;;;30.10;12.53;;;;;;;3.94;88.54;102438.63;5055549;28;20036;-80
2022/03/28 02:40:23;;;;;;;30.17;11.83;;;;;;;3.96;88.77;102436.69;5029451;28;20059;-81
2022/03/28 02:42:48;;;;;;;27.00;12.03;;;;;;;3.92;88.63;102425.34;5074588;28;20075;-81
2022/03/28 02:45:13;;;;;;;25.57;11.60;;;;;;;3.97;88.71;102439.25;5046432;28;20120;-81
2022/03/28 02:47:39;;;;;;;28.87;11.93;;;;;;;3.91;88.88;102434.38;5036436;28;20037;-80
2022/03/28 02:50:05;;;;;;;29.87;12.30;;;;;;;3.93;88.95;102431.56;5019988;28;20429;-80
2022/03/28 02:52:30;;;;;;;28.90;12.43;;;;;;;3.95;89.05;102437.66;5023013;28;20133;-80
2022/03/28 02:54:56;;;;;;;27.17;11.30;;;;;;;3.99;88.97;102439.94;5035916;28;20052;-80
2022/03/28 02:57:21;;;;;;;30.60;11.67;;;;;;;4.12;88.76;102458.56;5036214;28;20112;-80
2022/03/28 02:59:46;;;;;;;25.93;11.27;;;;;;;3.97;89.66;102428.50;5047344;28;20124;-80
2022/03/28 03:02:12;;;;;;;26.23;11.83;;;;;;;3.97;89.51;102423.16;5046363;28;20090;-81
2022/03/28 03:04:38;;;;;;;27.57;11.03;;;;;;;3.85;89.13;102405.41;5062276;28;20051;-80
2022/03/28 03:07:04;;;;;;;27.10;10.93;;;;;;;3.87;88.73;102404.28;5052437;28;20357;-80
2022/03/28 03:09:30;;;;;;;28.57;11.23;;;;;;;3.90;88.55;102413.91;5039505;28;20029;-80
2022/03/28 03:11:56;;;;;;;27.97;11.67;;;;;;;3.84;88.61;102401.84;5047468;28;20048;-80
2022/03/28 03:14:22;;;;;;;28.33;11.00;;;;;;;3.75;88.10;102397.25;5036215;28;20049;-83
2022/03/28 03:16:47;;;;;;;25.97;10.97;;;;;;;3.80;88.09;102405.78;5059776;28;20075;-80
2022/03/28 03:19:13;;;;;;;22.83;10.57;;;;;;;3.90;88.03;102419.25;5043792;28;20499;-80
2022/03/28 03:21:39;;;;;;;26.97;11.03;;;;;;;3.76;88.27;102417.75;5036757;28;20103;-81
2022/03/28 03:24:05;;;;;;;27.50;10.77;;;;;;;3.66;88.49;102395.38;5030671;28;20032;-80
2022/03/28 03:26:31;;;;;;;23.47;10.60;;;;;;;3.75;88.40;102416.03;5020696;28;20124;-80
2022/03/28 03:28:58;;;;;;;26.57;10.83;;;;;;;3.76;88.44;102415.06;5017581;28;20364;-81
2022/03/28 03:31:24;;;;;;;28.90;11.27;;;;;;;3.72;88.75;102401.03;5035331;28;20376;-80
2022/03/28 03:33:50;;;;;;;27.30;11.37;;;;;;;3.67;88.94;102395.25;5018914;28;20465;-80
2022/03/28 03:36:15;;;;;;;24.47;11.03;;;;;;;3.68;88.58;102404.13;5045309;28;20049;-80
2022/03/28 03:38:41;;;;;;;28.53;11.27;;;;;;;3.54;89.29;102383.84;5029375;28;20073;-81
2022/03/28 03:41:07;;;;;;;27.50;10.47;;;;;;;3.70;89.25;102402.19;5035312;28;20044;-80
2022/03/28 03:43:32;;;;;;;29.43;11.43;;;;;;;3.61;88.71;102393.06;5035525;28;20034;-81
2022/03/28 03:45:58;;;;;;;29.33;10.57;;;;;;;3.65;88.16;102405.22;5044403;28;20039;-80
2022/03/28 03:48:25;;;;;;;23.63;10.10;;;;;;;3.58;87.89;102384.41;5056560;28;20033;-80
2022/03/28 03:50:51;;;;;;;26.90;10.17;;;;;;;3.54;88.33;102384.69;5034639;28;20029;-80
2022/03/28 03:53:17;;;;;;;20.27;9.13;;;;;;;3.54;88.27;102383.84;5022646;28;20360;-81
2022/03/28 03:55:42;;;;;;;24.07;9.83;;;;;;;3.47;88.81;102372.78;5053670;28;20043;-80
2022/03/28 03:58:08;;;;;;;26.57;9.90;;;;;;;3.55;89.00;102386.38;5047966;28;20369;-80
2022/03/28 04:00:33;;;;;;;27.90;10.27;;;;;;;3.51;88.80;102376.91;5062902;28;20476;-80
2022/03/28 04:02:58;;;;;;;20.17;9.20;;;;;;;3.40;88.54;102374.28;5023578;28;20055;-80
2022/03/28 04:05:24;;;;;;;23.90;10.07;;;;;;;3.52;88.07;102381.28;5052342;28;20376;-82
2022/03/28 04:07:53;;;;;;;22.77;9.87;;;;;;;3.46;88.68;102379.09;5049606;28;20367;-80
2022/03/28 04:10:18;;;;;;;25.30;9.60;;;;;;;3.38;88.98;102360.97;5055063;28;20380;-80
2022/03/28 04:12:43;;;;;;;25.23;9.17;;;;;;;3.34;89.13;102356.84;5046066;28;20036;-80
2022/03/28 04:15:10;;;;;;;24.67;9.47;;;;;;;3.34;89.01;102351.50;5050776;28;20053;-80
2022/03/28 04:17:40;;;;;;;25.53;9.80;;;;;;;3.42;88.87;102374.16;5053712;28;20038;-80
2022/03/28 04:20:10;;;;;;;26.53;9.57;;;;;;;3.29;89.25;102359.09;5041472;28;20037;-81
2022/03/28 04:22:35;;;;;;;29.07;10.10;;;;;;;3.28;88.89;102364.53;5025455;28;20035;-80
2022/03/28 04:25:01;;;;;;;23.83;9.63;;;;;;;3.19;89.10;102336.69;5028101;28;20029;-81
2022/03/28 04:27:26;;;;;;;25.80;10.17;;;;;;;3.26;88.81;102355.78;5039508;28;20361;-80
2022/03/28 04:29:52;;;;;;;21.57;8.53;;;;;;;3.17;88.84;102334.16;5033350;28;20377;-80
2022/03/28 04:32:17;;;;;;;21.83;8.60;;;;;;;3.17;88.69;102342.19;5016206;28;20033;-80
2022/03/28 04:38:31;;;;;;;18.30;7.83;;;;;;;3.18;88.44;102351.94;5014296;28;20048;-80
2022/03/28 04:40:57;;;;;;;15.17;7.60;;;;;;;3.23;88.85;102372.13;5033987;28;20041;-81
2022/03/28 04:43:26;;;;;;;20.77;9.10;;;;;;;3.15;89.31;102362.88;5021742;28;20042;-80
2022/03/28 04:45:51;;;;;;;22.93;9.03;;;;;;;3.02;89.64;102346.13;5029210;28;20033;-81
2022/03/28 04:48:23;;;;;;;21.47;8.60;;;;;;;3.14;90.22;102357.66;5029764;28;20030;-80
2022/03/28 04:50:51;;;;;;;24.10;9.43;;;;;;;3.11;90.18;102360.59;5017050;28;20036;-81
2022/03/28 04:53:18;;;;;;;21.37;8.00;;;;;;;3.11;90.04;102365.94;5034695;28;20108;-80
2022/03/28 04:55:47;;;;;;;25.00;8.00;;;;;;;3.10;90.41;102365.09;5042081;28;20034;-80
2022/03/28 04:58:12;;;;;;;31.43;9.37;;;;;;;3.01;90.75;102358.66;5031687;28;20045;-80
2022/03/28 05:00:38;;;;;;;25.13;9.73;;;;;;;3.10;90.93;102380.28;5001185;28;20038;-80
2022/03/28 05:03:03;;;;;;;28.77;11.37;;;;;;;3.20;92.36;102384.78;5005292;28;20069;-80
2022/03/28 05:05:29;;;;;;;31.30;10.60;;;;;;;2.99;92.79;102375.81;5020944;28;20030;-80
2022/03/28 05:07:55;;;;;;;28.53;9.23;;;;;;;2.93;92.54;102371.81;5015597;28;20168;-80
2022/03/28 05:10:48;;;;;;;31.03;9.97;;;;;;;2.86;92.71;102346.53;5030061;28;20365;-80
2022/03/28 05:13:14;;;;;;;28.00;9.67;;;;;;;3.03;92.29;102382.63;5011465;28;20133;-80
2022/03/28 05:15:42;;;;;;;27.70;9.43;;;;;;;2.82;92.09;102345.91;5016960;28;20216;-80
2022/03/28 05:18:08;;;;;;;29.97;10.30;;;;;;;2.78;91.54;102343.63;5032147;28;20662;-80
2022/03/28 05:20:35;;;;;;;25.73;9.80;;;;;;;2.77;91.38;102340.06;5019555;28;20038;-81
2022/03/28 05:23:01;;;;;;;21.87;9.00;;;;;;;2.85;91.16;102347.50;5019439;28;20042;-81
2022/03/28 05:25:26;;;;;;;31.90;9.73;;;;;;;2.76;91.47;102341.06;4980290;28;20037;-81
2022/03/28 05:27:52;;;;;;;27.87;9.77;;;;;;;2.89;91.54;102373.03;5028686;28;20049;-80
2022/03/28 05:30:17;;;;;;;26.43;9.70;;;;;;;2.72;91.57;102341.41;5026005;28;20029;-81
2022/03/28 05:32:43;;;;;;;24.90;9.40;;;;;;;2.88;92.08;102368.66;5043167;28;20045;-80
2022/03/28 05:35:10;;;;;;;24.80;9.40;;;;;;;2.75;92.10;102344.69;5022913;28;20149;-82
2022/03/28 05:37:36;;;;;;;23.53;8.83;;;;;;;2.69;91.77;102342.50;5024606;28;20072;-80
2022/03/28 05:40:03;;;;;;;25.83;8.80;;;;;;;2.75;91.89;102349.19;5032680;28;20055;-80
2022/03/28 05:42:29;;;;;;;31.37;9.37;;;;;;;2.68;92.05;102341.66;5050867;28;20080;-80
2022/03/28 05:44:54;;;;;;;34.40;10.00;;;;;;;2.74;92.35;102345.66;5038410;28;20120;-80
2022/03/28 05:47:20;;;;;;;31.47;9.10;;;;;;;2.98;92.55;102382.16;5023139;28;20041;-80
2022/03/28 05:49:45;;;;;;;24.70;8.70;;;;;;;2.73;92.47;102354.66;5035912;28;20025;-80
2022/03/28 05:52:10;;;;;;;26.73;8.60;;;;;;;2.75;93.00;102347.38;5038156;28;20121;-81
2022/03/28 05:54:36;;;;;;;28.53;9.23;;;;;;;2.89;93.25;102356.97;5043516;28;20049;-80
2022/03/28 05:57:02;;;;;;;25.70;9.40;;;;;;;2.84;93.40;102343.97;5048598;28;20477;-81
2022/03/28 05:59:28;;;;;;;28.33;9.43;;;;;;;2.88;93.28;102341.88;5054902;28;20068;-80
2022/03/28 06:05:15;;;;;;;27.17;9.03;;;;;;;3.01;93.39;102347.09;5053199;28;20121;-80
2022/03/28 06:07:43;;;;;;;25.67;8.97;;;;;;;2.99;93.24;102338.31;5048909;28;20088;-80
2022/03/28 06:10:16;;;;;;;25.30;9.27;;;;;;;3.01;93.41;102331.88;5055247;28;20041;-80
2022/03/28 06:12:42;;;;;;;25.77;9.40;;;;;;;3.11;93.44;102331.13;5059330;28;20480;-80
2022/03/28 06:15:09;;;;;;;26.00;9.87;;;;;;;3.19;93.78;102325.97;5040268;28;20096;-80
2022/03/28 06:20:56;;;;;;;33.00;10.50;;;;;;;3.29;93.64;102329.63;5036875;28;20424;-79
2022/03/28 06:23:21;;;;;;;35.33;11.37;;;;;;;3.45;94.29;102344.41;5026958;28;20045;-79
2022/03/28 06:25:47;;;;;;;26.80;10.00;;;;;;;3.55;94.54;102337.31;5056155;28;20041;-80
2022/03/28 06:28:15;;;;;;;31.93;10.97;;;;;;;3.52;94.53;102322.34;5056420;28;20044;-80
2022/03/28 06:30:41;;;;;;;28.47;10.73;;;;;;;3.88;94.12;102365.75;5055923;28;20063;-80
2022/03/28 06:33:06;;;;;;;28.77;10.23;;;;;;;3.77;94.05;102325.63;5038572;28;20496;-80
2022/03/28 06:35:32;;;;;;;39.47;12.93;;;;;;;3.90;94.52;102341.50;5040191;28;20048;-80
2022/03/28 06:37:57;;;;;;;40.13;12.53;;;;;;;3.98;95.05;102341.69;5069507;28;20044;-80
2022/03/28 06:40:24;;;;;;;45.70;12.60;;;;;;;4.04;95.23;102327.75;5024450;28;20461;-79
2022/03/28 06:42:49;;;;;;;33.80;12.33;;;;;;;4.34;95.33;102360.13;5048597;28;20052;-79
2022/03/28 06:45:15;;;;;;;37.97;12.83;;;;;;;4.24;95.12;102322.50;5058057;28;20037;-79
2022/03/28 06:47:40;;;;;;;35.27;13.30;;;;;;;4.53;94.92;102352.16;5075160;28;20464;-80
2022/03/28 06:50:07;;;;;;;32.77;12.73;;;;;;;4.53;94.68;102328.00;5036853;28;20086;-79
2022/03/28 06:52:34;;;;;;;34.90;13.03;;;;;;;4.67;94.44;102334.81;5057953;28;20051;-80
2022/03/28 06:55:00;;;;;;;36.63;13.50;;;;;;;4.77;93.97;102331.31;5046052;28;20034;-80
2022/03/28 06:57:26;;;;;;;31.57;13.00;;;;;;;4.99;93.55;102357.09;5053872;28;20063;-80
2022/03/28 06:59:53;;;;;;;31.57;12.63;;;;;;;4.94;93.41;102327.97;5047323;28;20518;-79
2022/03/28 07:02:19;;;;;;;33.77;12.63;;;;;;;5.22;92.98;102342.44;5016268;28;20111;-84
2022/03/28 07:04:45;;;;;;;34.40;13.43;;;;;;;5.28;92.46;102329.44;5031432;28;20398;-82
2022/03/28 07:07:10;;;;;;;35.47;13.37;;;;;;;5.43;91.88;102341.47;5030759;28;20127;-82
2022/03/28 07:09:36;;;;;;;32.43;11.80;;;;;;;5.46;91.28;102324.22;5033267;28;20123;-80
2022/03/28 07:12:05;;;;;;;32.40;12.23;;;;;;;5.70;90.58;102339.91;5017116;28;20465;-85
2022/03/28 07:14:30;;;;;;;29.83;12.13;;;;;;;5.89;90.52;102336.34;5033892;28;20082;-85
2022/03/28 07:16:55;;;;;;;33.97;11.50;;;;;;;5.93;89.97;102302.78;5034554;28;20042;-85
2022/03/28 07:19:21;;;;;;;33.03;11.90;;;;;;;6.03;88.92;102314.38;5034764;28;20169;-85
2022/03/28 07:21:46;;;;;;;30.27;11.57;;;;;;;6.23;88.91;102319.72;5034887;28;20089;-85
2022/03/28 07:24:12;;;;;;;33.43;12.80;;;;;;;6.31;88.62;102313.59;5033945;28;20051;-86
2022/03/28 07:26:37;;;;;;;31.90;12.10;;;;;;;6.46;87.72;102324.72;5035670;28;20037;-84
2022/03/28 07:29:04;;;;;;;35.23;12.20;;;;;;;6.72;87.34;102330.28;5034515;28;20497;-86
2022/03/28 07:31:30;;;;;;;32.77;11.27;;;;;;;6.74;87.52;102306.72;5033687;28;20124;-85
2022/03/28 07:34:29;;;;;;;32.27;12.20;;;;;;;6.79;86.67;102304.44;5008946;28;20082;-80
2022/03/28 07:36:42;;;;;;;31.50;11.60;;;;;;;7.02;86.25;102320.19;5033164;28;20064;-84
2022/03/28 07:39:07;;;;;;;32.30;12.60;;;;;;;7.33;86.14;102335.97;5032721;28;20028;-80
2022/03/28 07:41:33;;;;;;;36.37;13.17;;;;;;;7.25;85.08;102318.75;5031981;28;20049;-80
2022/03/28 07:43:58;;;;;;;35.33;13.00;;;;;;;7.36;85.06;102301.47;5025123;28;20515;-80
2022/03/28 07:46:23;;;;;;;31.70;12.60;;;;;;;7.57;84.83;102305.69;5033246;28;20184;-80
2022/03/28 07:48:49;;;;;;;30.60;12.63;;;;;;;7.64;83.50;102289.75;5032848;28;20037;-84
2022/03/28 07:51:14;;;;;;;31.10;13.00;;;;;;;7.92;83.21;102290.44;5033595;28;20120;-82
2022/03/28 07:53:39;;;;;;;33.17;12.60;;;;;;;8.10;82.27;102304.75;5032720;28;20056;-84
2022/03/28 07:56:05;;;;;;;33.90;12.97;;;;;;;8.05;80.91;102306.19;5024670;28;20045;-84
2022/03/28 07:58:30;;;;;;;35.60;13.00;;;;;;;8.07;81.05;102294.25;5032985;28;20046;-85
2022/03/28 08:00:56;;;;;;;33.37;13.17;;;;;;;8.26;81.28;102301.28;5032179;28;20045;-84
2022/03/28 08:03:21;;;;;;;33.97;13.73;;;;;;;8.45;81.82;102286.69;5033131;28;20052;-88
2022/03/28 08:05:46;;;;;;;31.50;13.37;;;;;;;8.55;80.24;102289.28;5025324;28;20045;-84
2022/03/28 08:08:12;;;;;;;30.13;13.10;;;;;;;8.93;80.00;102297.88;5032674;28;20409;-85
2022/03/28 08:10:37;;;;;;;32.47;13.97;;;;;;;8.91;78.53;102262.03;5033034;28;20044;-84
2022/03/28 08:13:03;;;;;;;33.17;13.70;;;;;;;9.00;77.51;102270.16;5032997;28;20118;-84
2022/03/28 08:15:30;;;;;;;33.77;14.20;;;;;;;9.45;78.89;102276.94;5033554;28;20052;-86
2022/03/28 08:17:59;;;;;;;31.23;14.40;;;;;;;9.65;77.03;102284.72;5025022;28;20056;-81
2022/03/28 08:20:24;;;;;;;29.47;13.20;;;;;;;9.63;75.96;102261.38;5030888;28;20037;-87
2022/03/28 08:22:50;;;;;;;35.30;13.97;;;;;;;9.89;75.88;102271.16;5031158;28;20096;-85
2022/03/28 08:25:20;;;;;;;32.20;14.20;;;;;;;9.94;74.66;102266.06;5032755;28;20037;-85
2022/03/28 08:27:45;;;;;;;30.80;13.73;;;;;;;10.14;74.35;102276.50;5013897;28;20220;-83
2022/03/28 08:30:12;;;;;;;32.17;13.73;;;;;;;10.25;73.41;102257.19;5032585;28;20383;-80
2022/03/28 08:32:39;;;;;;;29.10;14.13;;;;;;;10.74;71.79;102277.84;5032503;28;20098;-84
2022/03/28 08:35:05;;;;;;;33.43;13.90;;;;;;;11.30;71.44;102277.63;5030967;28;20107;-87
2022/03/28 08:37:31;;;;;;;31.33;15.17;;;;;;;11.33;69.60;102265.56;5033104;28;20059;-82
2022/03/28 08:39:57;;;;;;;29.73;14.07;;;;;;;11.98;69.35;102255.97;5021907;28;20033;-85
2022/03/28 08:42:24;;;;;;;28.33;13.83;;;;;;;12.47;66.76;102253.69;5032227;28;20048;-84
2022/03/28 08:44:49;;;;;;;29.87;15.23;;;;;;;12.77;64.57;102256.34;5014715;28;20049;-81
2022/03/28 08:47:22;;;;;;;30.80;15.40;;;;;;;13.11;63.84;102243.94;5032018;28;20407;-81
2022/03/28 08:49:50;;;;;;;32.53;14.97;;;;;;;13.78;64.39;102255.44;5032039;28;20068;-84
2022/03/28 08:52:16;;;;;;;32.27;14.93;;;;;;;14.09;61.48;102273.22;5032995;28;20049;-81
2022/03/28 08:54:43;;;;;;;31.53;15.47;;;;;;;14.30;60.63;102278.59;5032852;28;20033;-81
2022/03/28 08:57:08;;;;;;;31.33;15.57;;;;;;;14.94;58.98;102265.63;5032751;28;20057;-84
2022/03/28 08:59:49;;;;;;;34.77;15.97;;;;;;;15.29;60.56;102259.22;5032504;28;20049;-84
2022/03/28 09:02:36;;;;;;;29.80;15.90;;;;;;;15.51;59.30;102251.63;5032131;28;20548;-82
2022/03/28 09:05:02;;;;;;;31.70;16.20;;;;;;;15.23;55.20;102265.47;5031002;28;20045;-84
2022/03/28 09:07:28;;;;;;;30.90;16.53;;;;;;;15.29;55.67;102256.47;5013302;28;20037;-82
2022/03/28 09:10:04;;;;;;;29.10;16.30;;;;;;;15.80;55.43;102255.00;5031367;28;20052;-85
2022/03/28 09:12:29;;;;;;;33.70;16.17;;;;;;;15.53;55.22;102257.75;5032039;28;20143;-87
2022/03/28 09:15:04;;;;;;;55.17;17.23;;;;;;;15.72;56.94;102249.72;5032440;28;20045;-87
2022/03/28 09:17:31;;;;;;;44.43;15.97;;;;;;;15.85;54.99;102241.53;5030979;28;20112;-88
2022/03/28 09:20:00;;;;;;;39.20;17.30;;;;;;;16.09;53.89;102236.44;5032767;28;20049;-88
2022/03/28 09:22:34;;;;;;;36.95;17.67;;;;;;;16.64;53.09;102256.00;5031697;28;20127;-85
2022/03/28 09:25:04;;;;;;;;;;;;;;;17.33;52.26;102269.09;5029131;28;20072;-92
2022/03/28 09:27:32;;;;;;;32.22;17.65;;;;;;;15.99;53.01;102240.47;5026753;28;19921;-87
2022/03/28 09:30:05;;;;;;;32.25;17.77;;;;;;;15.18;54.54;102236.09;5027207;28;20045;-83
2022/03/28 09:32:48;;;;;;;32.30;18.20;;;;;;;15.41;54.23;102219.28;5026531;28;20036;-83
2022/03/28 09:35:21;;;;;;;31.05;17.58;;;;;;;15.47;54.89;102250.38;5012304;28;21291;-83
2022/03/28 09:38:04;;;;;;;35.80;18.30;;;;;;;14.94;57.52;102260.19;5025934;28;20111;-86
2022/03/28 09:40:33;;;;;;;32.77;17.27;;;;;;;14.68;57.32;102231.78;5027247;28;20043;-83
2022/03/28 09:43:00;;;;;;;37.07;17.87;;;;;;;15.05;56.90;102239.63;5025701;28;20052;-85
2022/03/28 09:45:38;;;;;;;38.17;19.23;;;;;;;15.43;56.83;102249.13;4992097;28;20469;-82
2022/03/28 09:48:09;;;;;;;32.90;18.47;;;;;;;15.49;55.15;102223.69;5016314;28;20037;-83
2022/03/28 09:50:45;;;;;;;33.20;18.93;;;;;;;15.80;54.71;102214.88;5025270;28;20185;-85
2022/03/28 09:53:13;;;;;;;33.60;19.13;;;;;;;15.60;54.43;102241.31;4994793;28;20068;-93
2022/03/28 09:55:46;;;;;;;34.17;19.80;;;;;;;15.91;53.38;102246.19;5026391;28;20517;-90
2022/03/28 09:58:56;;;;;;;35.07;20.83;;;;;;;15.18;53.43;102206.88;5009615;28;20049;-86
2022/03/28 10:01:23;;;;;;;32.50;18.97;;;;;;;15.81;53.33;102219.25;5017030;28;20052;-90
2022/03/28 10:03:52;;;;;;;32.47;18.13;;;;;;;15.56;54.00;102220.94;5028825;28;20490;-84
2022/03/28 10:06:18;;;;;;;32.22;18.90;;;;;;;15.76;53.91;102199.06;5026776;28;20531;-84
2022/03/28 10:08:44;;;;;;;56.72;20.73;;;;;;;16.27;52.97;102228.38;5013288;28;20057;-87
2022/03/28 10:11:13;;;;;;;32.85;18.63;;;;;;;16.64;52.60;102194.97;5011418;28;20468;-86
2022/03/28 10:13:38;;;;;;;34.97;18.35;;;;;;;17.24;50.64;102199.22;5016473;28;20049;-89
2022/03/28 10:16:05;;;;;;;31.70;18.27;;;;;;;17.53;48.23;102187.56;5027853;28;20072;-88
2022/03/28 10:18:36;;;;;;;33.55;19.92;;;;;;;16.70;49.74;102196.84;5029114;28;20126;-82
2022/03/28 10:21:05;;;;;;;30.58;18.67;;;;;;;16.87;51.08;102184.28;5010154;28;20051;-93
2022/03/28 10:23:36;;;;;;;29.35;16.83;;;;;;;16.65;51.84;102193.91;5029736;28;20056;-82
2022/03/28 10:26:04;;;;;;;32.17;18.52;;;;;;;16.35;50.65;102209.00;5022066;28;20139;-87
2022/03/28 10:28:29;;;;;;;32.03;18.80;;;;;;;16.66;52.02;102190.97;5030331;28;20049;-85
2022/03/28 10:31:19;;;;;;;29.88;17.85;;;;;;;17.17;52.62;102204.75;5025071;28;20029;-85
2022/03/28 10:33:48;;;;;;;29.08;17.48;;;;;;;17.59;50.19;102169.38;5032703;28;20120;-86
2022/03/28 10:36:30;;;;;;;29.90;18.52;;;;;;;17.18;49.17;102201.78;5009627;28;20033;-87
2022/03/28 10:39:34;;;;;;;31.05;17.45;;;;;;;17.54;49.81;102194.72;5031349;28;20037;-88
2022/03/28 10:42:24;;;;;;;32.90;18.05;;;;;;;17.81;46.45;102166.19;5033653;28;20045;-84
2022/03/28 10:45:08;;;;;;;27.70;16.95;;;;;;;17.63;49.42;102167.03;5030328;28;20052;-82
2022/03/28 10:47:45;;;;;;;29.58;17.65;;;;;;;17.32;46.81;102163.31;5032684;28;20766;-84
2022/03/28 10:50:12;;;;;;;27.65;16.67;;;;;;;17.30;48.91;102163.53;5028783;28;20188;-84
2022/03/28 10:53:02;;;;;;;27.63;17.58;;;;;;;17.98;46.60;102178.25;5031042;28;20041;-86
2022/03/28 10:55:37;;;;;;;27.42;17.40;;;;;;;18.14;47.28;102163.09;5033573;28;20037;-84
2022/03/28 10:58:30;;;;;;;25.70;16.58;;;;;;;17.79;45.54;102147.22;5029575;28;20182;-86
2022/03/28 11:01:15;;;;;;;27.70;16.35;;;;;;;18.38;46.77;102158.53;5029084;28;20043;-83
2022/03/28 11:03:46;;;;;;;27.02;17.08;;;;;;;18.94;46.84;102172.09;5030450;28;20059;-85
2022/03/28 11:06:17;;;;;;;27.83;16.98;;;;;;;18.64;45.54;102145.50;5028618;28;20033;-86
2022/03/28 11:08:47;;;;;;;26.95;16.02;;;;;;;18.52;45.45;102150.97;5028072;28;20044;-82
2022/03/28 11:11:20;;;;;;;28.88;16.30;;;;;;;18.55;45.04;102134.03;5027047;28;20090;-92
2022/03/28 11:14:04;;;;;;;26.85;17.58;;;;;;;18.11;46.04;102155.31;5028926;28;20106;-84
2022/03/28 11:16:40;;;;;;;26.55;16.63;;;;;;;18.04;46.18;102155.38;5030767;28;20134;-84
2022/03/28 11:19:32;;;;;;;28.13;17.13;;;;;;;18.24;46.71;102148.81;5031618;28;20477;-86
2022/03/28 11:22:04;;;;;;;27.77;16.27;;;;;;;18.99;45.34;102142.03;5014646;28;20053;-90
2022/03/28 11:24:54;;;;;;;25.73;16.95;;;;;;;18.88;43.33;102121.72;5031560;28;20041;-89
2022/03/28 11:27:31;;;;;;;28.60;17.25;;;;;;;18.45;44.31;102113.69;5028357;28;20052;-84
2022/03/28 11:30:04;;;;;;;26.13;17.05;;;;;;;18.98;46.02;102110.13;5028810;28;20049;-91
2022/03/28 11:32:35;;;;;;;25.27;16.55;;;;;;;18.74;45.01;102106.50;5035242;28;20086;-82
2022/03/28 11:35:02;;;;;;;27.98;17.20;;;;;;;18.72;43.59;102100.41;5010610;28;20636;-91
2022/03/28 11:37:31;;;;;;;26.70;17.50;;;;;;;19.20;42.17;102110.41;5029054;28;20567;-89
2022/03/28 11:40:07;;;;;;;25.55;17.77;;;;;;;19.23;44.68;102112.66;5029672;28;20045;-86
2022/03/28 11:42:36;;;;;;;25.30;17.50;;;;;;;19.52;42.23;102114.66;5039100;28;20356;-85